createdAt,value
2022-12-22T00:01:36.164Z,5.70
2022-12-22T00:04:21.219Z,6.17
2022-12-22T00:07:07.658Z,6.40
2022-12-22T00:09:52.771Z,5.70
2022-12-22T00:12:39.643Z,5.60
2022-12-22T00:15:25.962Z,4.50
2022-12-22T00:18:11.000Z,5.47
2022-12-22T00:20:56.761Z,5.20
2022-12-22T00:23:41.493Z,6.50
2022-12-22T00:26:27.022Z,6.10
2022-12-22T00:29:12.159Z,5.63
2022-12-22T00:31:57.715Z,6.37
2022-12-22T00:34:42.976Z,5.30
2022-12-22T00:37:33.278Z,4.80
2022-12-22T00:40:20.664Z,5.00
2022-12-22T00:43:06.331Z,5.33
2022-12-22T00:45:51.876Z,5.03
2022-12-22T00:48:45.582Z,5.37
2022-12-22T00:51:32.900Z,5.30
2022-12-22T00:54:18.079Z,5.00
2022-12-22T00:57:03.809Z,5.23
2022-12-22T00:59:51.422Z,5.80
2022-12-22T01:02:36.838Z,4.50
2022-12-22T01:05:21.703Z,4.60
2022-12-22T01:08:07.114Z,5.53
2022-12-22T01:10:52.192Z,4.20
2022-12-22T01:13:37.283Z,4.33
2022-12-22T01:16:29.456Z,4.90
2022-12-22T01:19:14.840Z,5.03
2022-12-22T01:22:00.260Z,4.77
2022-12-22T01:24:46.544Z,4.60
2022-12-22T01:27:32.620Z,4.10
2022-12-22T01:30:17.474Z,4.60
2022-12-22T01:33:02.899Z,4.47
2022-12-22T01:35:52.704Z,5.07
2022-12-22T01:38:37.925Z,4.97
2022-12-22T01:41:31.557Z,4.53
2022-12-22T01:44:16.663Z,4.40
2022-12-22T01:47:04.012Z,4.30
2022-12-22T01:49:56.406Z,4.83
2022-12-22T01:52:44.300Z,7.83
2022-12-22T01:55:32.809Z,4.40
2022-12-22T01:58:19.520Z,5.33
2022-12-22T02:01:05.914Z,4.77
2022-12-22T02:06:34.209Z,5.83
2022-12-22T02:09:43.527Z,4.77
2022-12-22T02:12:44.404Z,4.70
2022-12-22T02:15:38.157Z,4.83
2022-12-22T02:18:33.419Z,5.50
2022-12-22T02:21:30.524Z,5.70
2022-12-22T02:24:19.577Z,5.20
2022-12-22T02:27:07.554Z,5.10
2022-12-22T02:29:56.801Z,4.70
2022-12-22T02:32:43.963Z,4.50
2022-12-22T02:35:34.148Z,4.00
2022-12-22T02:38:47.686Z,5.67
2022-12-22T02:41:55.508Z,4.97
2022-12-22T02:45:01.230Z,5.13
2022-12-22T02:48:06.426Z,4.37
2022-12-22T02:50:55.871Z,4.07
2022-12-22T02:53:41.925Z,4.83
2022-12-22T02:56:29.893Z,4.60
2022-12-22T02:59:14.992Z,3.80
2022-12-22T03:02:02.400Z,3.80
2022-12-22T03:04:48.082Z,4.80
2022-12-22T03:07:33.461Z,4.63
2022-12-22T03:10:18.443Z,4.83
2022-12-22T03:13:06.059Z,4.80
2022-12-22T03:15:51.247Z,4.93
2022-12-22T03:18:36.405Z,5.13
2022-12-22T03:21:21.350Z,5.00
2022-12-22T03:24:07.423Z,4.97
2022-12-22T03:26:34.038Z,5.50
2022-12-22T03:29:00.697Z,4.63
2022-12-22T03:31:30.108Z,5.40
2022-12-22T03:33:56.699Z,4.30
2022-12-22T03:36:23.339Z,4.20
2022-12-22T03:38:49.870Z,4.67
2022-12-22T03:41:35.190Z,4.40
2022-12-22T03:44:20.353Z,4.60
2022-12-22T03:46:46.990Z,4.63
2022-12-22T03:49:14.094Z,4.03
2022-12-22T03:51:45.818Z,5.13
2022-12-22T03:54:15.216Z,4.30
2022-12-22T03:56:42.194Z,4.67
2022-12-22T03:59:08.895Z,4.23
2022-12-22T04:01:39.781Z,3.93
2022-12-22T04:04:06.525Z,3.63
2022-12-22T04:06:35.239Z,4.73
2022-12-22T04:09:02.577Z,4.57
2022-12-22T04:11:48.056Z,4.37
2022-12-22T04:14:17.487Z,4.67
2022-12-22T04:16:44.456Z,4.80
2022-12-22T04:19:11.078Z,4.73
2022-12-22T04:21:38.390Z,5.07
2022-12-22T04:24:05.290Z,5.37
2022-12-22T04:26:32.432Z,6.00
2022-12-22T04:28:59.111Z,5.10
2022-12-22T04:31:26.116Z,4.93
2022-12-22T04:33:55.854Z,5.23
2022-12-22T04:36:22.516Z,5.27
2022-12-22T04:38:48.988Z,3.93
2022-12-22T04:41:16.317Z,4.93
2022-12-22T04:43:42.838Z,4.80
2022-12-22T04:46:12.213Z,5.10
2022-12-22T04:48:40.368Z,5.33
2022-12-22T04:51:07.163Z,4.80
2022-12-22T04:53:34.091Z,4.40
2022-12-22T04:56:03.087Z,4.80
2022-12-22T04:58:30.462Z,4.10
2022-12-22T05:00:57.473Z,4.40
2022-12-22T05:03:24.535Z,4.10
2022-12-22T05:05:51.610Z,4.80
2022-12-22T05:08:18.126Z,4.40
2022-12-22T05:10:44.736Z,4.10
2022-12-22T05:13:11.519Z,5.03
2022-12-22T05:15:38.189Z,4.30
2022-12-22T05:18:06.053Z,3.77
2022-12-22T05:20:36.393Z,4.00
2022-12-22T05:23:02.927Z,3.60
2022-12-22T05:25:38.621Z,4.87
2022-12-22T05:28:05.240Z,4.70
2022-12-22T05:30:32.038Z,4.30
2022-12-22T05:32:58.578Z,3.90
2022-12-22T05:35:25.089Z,4.80
2022-12-22T05:37:51.718Z,4.67
2022-12-22T05:40:18.395Z,4.50
2022-12-22T05:42:52.852Z,4.27
2022-12-22T05:45:21.022Z,3.50
2022-12-22T05:47:52.740Z,4.63
2022-12-22T05:50:25.010Z,3.77
2022-12-22T05:52:51.624Z,5.73
2022-12-22T05:55:18.332Z,4.50
2022-12-22T05:57:47.390Z,3.60
2022-12-22T06:00:15.461Z,3.80
2022-12-22T06:02:45.185Z,4.90
2022-12-22T06:05:13.884Z,3.77
2022-12-22T06:07:41.502Z,5.07
2022-12-22T06:10:12.253Z,6.13
2022-12-22T06:12:40.827Z,5.00
2022-12-22T06:15:09.687Z,4.37
2022-12-22T06:17:43.744Z,4.20
2022-12-22T06:20:11.407Z,4.80
2022-12-22T06:22:38.227Z,4.80
2022-12-22T06:25:06.513Z,5.13
2022-12-22T06:27:33.031Z,4.27
2022-12-22T06:29:59.542Z,3.80
2022-12-22T06:32:26.310Z,4.40
2022-12-22T06:34:52.863Z,4.10
2022-12-22T06:37:19.607Z,4.27
2022-12-22T06:39:48.559Z,3.70
2022-12-22T06:42:33.561Z,4.77
2022-12-22T06:45:00.194Z,3.70
2022-12-22T06:47:26.716Z,4.30
2022-12-22T06:49:54.028Z,4.70
2022-12-22T06:52:20.505Z,3.83
2022-12-22T06:54:47.234Z,4.83
2022-12-22T06:57:14.109Z,4.27
2022-12-22T06:59:41.044Z,4.63
2022-12-22T07:02:07.621Z,5.07
2022-12-22T07:04:34.421Z,4.47
2022-12-22T07:07:00.934Z,4.27
2022-12-22T07:09:27.526Z,4.40
2022-12-22T07:11:54.196Z,5.13
2022-12-22T07:14:21.732Z,3.10
2022-12-22T07:16:48.398Z,4.03
2022-12-22T07:19:16.386Z,4.43
2022-12-22T07:21:43.363Z,3.30
2022-12-22T07:24:10.924Z,4.23
2022-12-22T07:26:37.543Z,5.20
2022-12-22T07:29:08.371Z,4.60
2022-12-22T07:31:35.604Z,4.63
2022-12-22T07:34:02.143Z,4.10
2022-12-22T07:36:29.377Z,4.40
2022-12-22T07:38:56.387Z,3.57
2022-12-22T07:41:42.639Z,4.43
2022-12-22T07:44:09.263Z,4.27
2022-12-22T07:46:37.379Z,4.67
2022-12-22T07:49:25.699Z,4.67
2022-12-22T07:51:52.454Z,6.07
2022-12-22T07:54:19.375Z,12.77
2022-12-22T07:56:47.621Z,10.43
2022-12-22T07:59:14.396Z,7.50
2022-12-22T08:01:42.130Z,6.83
2022-12-22T08:04:10.620Z,6.60
2022-12-22T08:06:38.026Z,7.23
2022-12-22T08:09:07.938Z,7.50
2022-12-22T08:11:34.578Z,6.33
2022-12-22T08:14:02.129Z,5.93
2022-12-22T08:16:32.210Z,6.47
2022-12-22T08:18:58.681Z,5.77
2022-12-22T08:21:25.253Z,6.17
2022-12-22T08:23:54.634Z,5.73
2022-12-22T08:26:29.221Z,5.60
2022-12-22T08:29:03.288Z,4.63
2022-12-22T08:31:30.704Z,4.93
2022-12-22T08:33:59.706Z,5.00
2022-12-22T08:36:26.491Z,5.57
2022-12-22T08:38:53.485Z,5.13
2022-12-22T08:41:40.394Z,4.53
2022-12-22T08:44:06.978Z,5.17
2022-12-22T08:46:33.742Z,5.13
2022-12-22T08:49:01.821Z,5.10
2022-12-22T08:51:28.388Z,5.63
2022-12-22T08:54:06.092Z,5.60
2022-12-22T08:56:33.712Z,4.70
2022-12-22T08:59:05.029Z,4.63
2022-12-22T09:01:33.730Z,4.70
2022-12-22T09:04:00.848Z,4.90
2022-12-22T09:06:30.808Z,3.93
2022-12-22T09:09:05.234Z,4.30
2022-12-22T09:11:32.140Z,4.40
2022-12-22T09:14:00.720Z,4.03
2022-12-22T09:16:32.761Z,4.50
2022-12-22T09:19:00.194Z,4.60
2022-12-22T09:21:27.641Z,4.70
2022-12-22T09:23:55.358Z,4.70
2022-12-22T09:26:25.492Z,5.57
2022-12-22T09:28:53.664Z,4.57
2022-12-22T09:31:23.992Z,4.57
2022-12-22T09:33:54.912Z,4.40
2022-12-22T09:36:24.910Z,4.57
2022-12-22T09:38:51.836Z,4.33
2022-12-22T09:41:52.503Z,4.80
2022-12-22T09:44:52.064Z,4.43
2022-12-22T09:47:30.343Z,4.30
2022-12-22T09:49:57.775Z,3.67
2022-12-22T09:52:49.242Z,4.47
2022-12-22T09:55:30.996Z,4.70
2022-12-22T09:57:57.456Z,3.93
2022-12-22T10:00:27.126Z,4.30
2022-12-22T10:03:12.592Z,4.07
2022-12-22T10:06:03.765Z,3.90
2022-12-22T10:08:34.457Z,4.70
2022-12-22T10:11:01.254Z,4.13
2022-12-22T10:13:29.026Z,4.00
2022-12-22T10:15:56.092Z,4.60
2022-12-22T10:18:27.877Z,4.67
2022-12-22T10:21:15.308Z,4.33
2022-12-22T10:23:48.275Z,5.00
2022-12-22T10:26:30.111Z,4.70
2022-12-22T10:29:08.390Z,3.90
2022-12-22T10:31:37.119Z,4.20
2022-12-22T10:34:16.119Z,4.43
2022-12-22T10:36:52.707Z,3.47
2022-12-22T10:39:23.448Z,4.50
2022-12-22T10:41:51.641Z,4.20
2022-12-22T10:44:19.001Z,4.20
2022-12-22T10:46:53.447Z,4.87
2022-12-22T10:49:27.017Z,5.10
2022-12-22T10:52:15.495Z,5.23
2022-12-22T10:54:46.259Z,4.57
2022-12-22T10:57:16.556Z,5.30
2022-12-22T10:59:58.521Z,5.37
2022-12-22T11:02:27.538Z,4.50
2022-12-22T11:05:03.822Z,4.73
2022-12-22T11:07:36.302Z,4.23
2022-12-22T11:10:07.439Z,4.67
2022-12-22T11:12:46.440Z,4.60
2022-12-22T11:15:37.785Z,4.03
2022-12-22T11:18:13.579Z,4.60
2022-12-22T11:21:11.535Z,4.93
2022-12-22T11:23:58.801Z,4.30
2022-12-22T11:26:42.564Z,3.93
2022-12-22T11:29:30.339Z,4.63
2022-12-22T11:32:14.579Z,4.47
2022-12-22T11:34:59.129Z,4.90
2022-12-22T11:37:42.138Z,4.10
2022-12-22T11:40:22.708Z,3.47
2022-12-22T11:43:05.241Z,4.10
2022-12-22T11:46:09.018Z,3.73
2022-12-22T11:48:44.912Z,5.37
2022-12-22T11:51:27.311Z,3.50
2022-12-22T11:54:28.445Z,4.00
2022-12-22T11:57:14.068Z,3.97
2022-12-22T12:00:01.631Z,3.53
2022-12-22T12:02:49.723Z,3.63
2022-12-22T12:05:35.975Z,4.43
2022-12-22T12:08:23.532Z,3.60
2022-12-22T12:11:13.014Z,5.17
2022-12-22T12:14:07.235Z,3.57
2022-12-22T12:16:43.376Z,4.23
2022-12-22T12:19:26.824Z,4.07
2022-12-22T12:22:04.587Z,4.83
2022-12-22T12:25:22.366Z,4.10
2022-12-22T12:28:17.195Z,4.70
2022-12-22T12:30:54.322Z,4.57
2022-12-22T12:33:37.228Z,4.60
2022-12-22T12:36:23.149Z,6.57
2022-12-22T12:39:37.775Z,5.30
2022-12-22T12:42:38.615Z,5.87
2022-12-22T12:45:37.900Z,4.40
2022-12-22T12:48:25.610Z,3.80
2022-12-22T12:50:53.586Z,4.17
2022-12-22T12:53:32.402Z,3.43
2022-12-22T12:56:03.068Z,3.43
2022-12-22T12:58:48.973Z,4.13
2022-12-22T13:01:18.732Z,6.13
2022-12-22T13:04:04.701Z,4.83
2022-12-22T13:06:50.242Z,4.60
2022-12-22T13:09:50.102Z,3.53
2022-12-22T13:12:41.160Z,4.97
2022-12-22T13:15:27.330Z,4.13
2022-12-22T13:17:57.001Z,4.50
2022-12-22T13:20:35.435Z,3.90
2022-12-22T13:23:04.536Z,4.83
2022-12-22T13:25:42.117Z,3.63
2022-12-22T13:28:17.948Z,3.70
2022-12-22T13:30:53.774Z,3.20
2022-12-22T13:33:24.215Z,4.80
2022-12-22T13:35:58.511Z,4.50
2022-12-22T13:38:35.138Z,3.77
2022-12-22T13:41:14.837Z,4.00
2022-12-22T13:43:43.083Z,5.20
2022-12-22T13:46:09.778Z,4.47
2022-12-22T13:48:45.218Z,4.57
2022-12-22T13:51:29.300Z,4.20
2022-12-22T13:54:08.630Z,5.47
2022-12-22T13:56:54.390Z,4.90
2022-12-22T13:59:42.884Z,4.83
2022-12-22T14:02:12.933Z,5.10
2022-12-22T14:04:51.735Z,5.30
2022-12-22T14:07:22.899Z,5.37
2022-12-22T14:09:53.361Z,5.10
2022-12-22T14:12:22.669Z,6.27
2022-12-22T14:14:52.879Z,5.47
2022-12-22T14:17:23.107Z,5.10
2022-12-22T14:19:56.144Z,5.40
2022-12-22T14:22:30.265Z,6.43
2022-12-22T14:25:00.052Z,6.27
2022-12-22T14:27:43.056Z,3.93
2022-12-22T14:30:22.858Z,4.47
2022-12-22T14:32:55.691Z,3.90
2022-12-22T14:35:25.572Z,3.80
2022-12-22T14:38:19.075Z,4.57
2022-12-22T14:40:52.682Z,6.97
2022-12-22T14:43:30.186Z,5.70
2022-12-22T14:46:06.615Z,5.63
2022-12-22T14:48:35.710Z,5.33
2022-12-22T14:51:04.778Z,5.27
2022-12-22T14:53:43.446Z,5.97
2022-12-22T14:56:15.525Z,5.90
2022-12-22T14:58:43.549Z,4.90
2022-12-22T15:01:30.647Z,4.57
2022-12-22T15:04:04.299Z,4.93
2022-12-22T15:06:40.754Z,6.10
2022-12-22T15:09:13.521Z,4.23
2022-12-22T15:11:44.426Z,4.10
2022-12-22T15:14:16.420Z,6.20
2022-12-22T15:16:45.261Z,4.70
2022-12-22T15:19:20.208Z,5.07
2022-12-22T15:21:47.019Z,4.40
2022-12-22T15:24:16.880Z,4.67
2022-12-22T15:26:45.515Z,4.80
2022-12-22T15:29:12.950Z,5.13
2022-12-22T15:31:40.683Z,5.20
2022-12-22T15:34:31.878Z,4.50
2022-12-22T15:37:02.733Z,5.53
2022-12-22T15:39:31.257Z,6.23
2022-12-22T15:41:58.188Z,4.27
2022-12-22T15:44:26.553Z,3.57
2022-12-22T15:46:55.791Z,4.93
2022-12-22T15:49:26.001Z,5.53
2022-12-22T15:51:58.811Z,8.97
2022-12-22T15:54:28.519Z,8.63
2022-12-22T15:56:59.550Z,7.67
2022-12-22T15:59:29.138Z,17.00
2022-12-22T16:02:01.222Z,10.97
2022-12-22T16:04:28.760Z,8.73
2022-12-22T16:06:55.859Z,8.60
2022-12-22T16:09:26.319Z,7.67
2022-12-22T16:11:53.215Z,6.47
2022-12-22T16:14:21.728Z,11.70
2022-12-22T16:16:50.838Z,8.80
2022-12-22T16:19:24.199Z,7.47
2022-12-22T16:21:52.781Z,13.07
2022-12-22T16:24:22.841Z,9.40
2022-12-22T16:26:53.264Z,6.00
2022-12-22T16:29:22.276Z,6.50
2022-12-22T16:31:51.501Z,6.07
2022-12-22T16:34:18.609Z,5.60
2022-12-22T16:36:47.441Z,4.93
2022-12-22T16:39:17.785Z,8.00
2022-12-22T16:41:45.260Z,11.10
2022-12-22T16:44:18.902Z,8.40
2022-12-22T16:46:46.931Z,6.30
2022-12-22T16:49:26.159Z,6.73
2022-12-22T16:51:54.414Z,7.00
2022-12-22T16:54:26.298Z,7.10
2022-12-22T16:56:56.728Z,6.23
2022-12-22T16:59:23.769Z,6.30
2022-12-22T17:02:02.445Z,7.90
2022-12-22T17:04:33.695Z,7.20
2022-12-22T17:07:01.947Z,5.70
2022-12-22T17:09:45.386Z,6.17
2022-12-22T17:12:19.325Z,5.40
2022-12-22T17:14:46.654Z,8.20
2022-12-22T17:17:25.291Z,6.17
2022-12-22T17:19:56.779Z,5.80
2022-12-22T17:22:33.217Z,6.53
2022-12-22T17:25:03.631Z,5.33
2022-12-22T17:27:33.073Z,4.70
2022-12-22T17:30:03.985Z,7.17
2022-12-22T17:32:30.838Z,5.53
2022-12-22T17:34:58.043Z,5.23
2022-12-22T17:37:24.644Z,5.30
2022-12-22T17:39:53.997Z,5.50
2022-12-22T17:42:23.502Z,5.40
2022-12-22T17:44:51.531Z,5.27
2022-12-22T17:47:31.255Z,4.93
2022-12-22T17:50:00.430Z,5.40
2022-12-22T17:52:28.304Z,5.03
2022-12-22T17:54:56.883Z,5.60
2022-12-22T17:57:32.115Z,6.07
2022-12-22T18:00:01.913Z,4.63
2022-12-22T18:02:30.648Z,6.63
2022-12-22T18:04:57.343Z,8.70
2022-12-22T18:07:25.321Z,10.53
2022-12-22T18:09:56.010Z,13.80
2022-12-22T18:12:25.864Z,7.00
2022-12-22T18:14:52.639Z,5.27
2022-12-22T18:17:35.486Z,5.70
2022-12-22T18:20:02.711Z,5.90
2022-12-22T18:22:30.111Z,4.17
2022-12-22T18:25:00.067Z,4.63
2022-12-22T18:27:27.558Z,5.30
2022-12-22T18:29:55.601Z,7.57
2022-12-22T18:32:27.455Z,7.00
2022-12-22T18:34:56.364Z,5.53
2022-12-22T18:37:27.883Z,6.33
2022-12-22T18:39:55.369Z,7.63
2022-12-22T18:42:28.143Z,8.83
2022-12-22T18:44:55.898Z,7.90
2022-12-22T18:47:22.642Z,6.23
2022-12-22T18:49:49.835Z,6.87
2022-12-22T18:52:23.739Z,6.77
2022-12-22T18:54:52.566Z,6.47
2022-12-22T18:57:20.563Z,5.67
2022-12-22T18:59:58.608Z,5.27
2022-12-22T19:02:27.575Z,5.40
2022-12-22T19:04:57.750Z,6.00
2022-12-22T19:07:28.952Z,5.30
2022-12-22T19:09:55.850Z,5.30
2022-12-22T19:12:23.432Z,5.47
2022-12-22T19:14:52.927Z,6.23
2022-12-22T19:17:22.084Z,10.90
2022-12-22T19:19:49.440Z,8.90
2022-12-22T19:22:22.526Z,6.93
2022-12-22T19:24:49.670Z,7.50
2022-12-22T19:27:23.368Z,7.03
2022-12-22T19:29:57.252Z,5.50
2022-12-22T19:32:56.725Z,9.63
2022-12-22T19:35:24.487Z,7.33
2022-12-22T19:37:55.560Z,7.50
2022-12-22T19:40:28.488Z,7.23
2022-12-22T19:42:59.526Z,9.03
2022-12-22T19:45:35.733Z,8.37
2022-12-22T19:48:21.545Z,7.03
2022-12-22T19:50:49.661Z,7.43
2022-12-22T19:53:17.636Z,5.50
2022-12-22T19:55:51.132Z,5.60
2022-12-22T19:58:31.049Z,5.10
2022-12-22T20:01:01.544Z,5.20
2022-12-22T20:03:29.567Z,6.50
2022-12-22T20:05:56.762Z,5.20
2022-12-22T20:08:25.384Z,6.63
2022-12-22T20:10:58.323Z,5.93
2022-12-22T20:13:30.799Z,5.10
2022-12-22T20:16:00.383Z,9.33
2022-12-22T20:18:30.637Z,7.60
2022-12-22T20:21:03.434Z,6.37
2022-12-22T20:23:33.795Z,5.63
2022-12-22T20:26:06.514Z,5.60
2022-12-22T20:28:35.973Z,5.80
2022-12-22T20:31:05.223Z,5.50
2022-12-22T20:33:33.476Z,4.53
2022-12-22T20:36:03.071Z,5.60
2022-12-22T20:38:47.857Z,5.20
2022-12-22T20:41:14.460Z,6.20
2022-12-22T20:43:42.949Z,4.90
2022-12-22T20:46:18.323Z,5.70
2022-12-22T20:48:50.405Z,4.97
2022-12-22T20:51:20.309Z,4.50
2022-12-22T20:53:48.098Z,5.20
2022-12-22T20:56:30.905Z,5.17
2022-12-22T20:59:03.979Z,5.13
2022-12-22T21:01:31.276Z,4.90
2022-12-22T21:04:00.319Z,4.77
2022-12-22T21:06:33.071Z,5.40
2022-12-22T21:09:33.332Z,5.20
2022-12-22T21:12:03.425Z,4.40
2022-12-22T21:14:33.769Z,4.73
2022-12-22T21:17:02.653Z,4.30
2022-12-22T21:19:31.553Z,5.13
2022-12-22T21:21:58.772Z,5.50
2022-12-22T21:24:25.326Z,5.13
2022-12-22T21:27:02.779Z,4.73
2022-12-22T21:29:33.642Z,4.13
2022-12-22T21:32:00.600Z,4.50
2022-12-22T21:34:27.138Z,4.27
2022-12-22T21:36:59.163Z,4.83
2022-12-22T21:39:41.653Z,4.60
2022-12-22T21:42:14.327Z,4.67
2022-12-22T21:44:41.193Z,5.20
2022-12-22T21:47:12.790Z,3.83
2022-12-22T21:49:40.374Z,6.30
2022-12-22T21:52:08.066Z,5.27
2022-12-22T21:54:37.542Z,4.33
2022-12-22T21:57:04.544Z,4.30
2022-12-22T21:59:31.354Z,5.10
2022-12-22T22:01:59.461Z,4.47
2022-12-22T22:04:30.791Z,5.30
2022-12-22T22:06:57.945Z,3.80
2022-12-22T22:09:25.369Z,4.40
2022-12-22T22:12:10.465Z,4.77
2022-12-22T22:14:37.826Z,3.57
2022-12-22T22:17:04.622Z,4.00
2022-12-22T22:19:31.555Z,4.47
2022-12-22T22:21:59.665Z,4.17
2022-12-22T22:24:26.432Z,4.63
2022-12-22T22:26:55.876Z,4.40
2022-12-22T22:29:22.697Z,4.83
2022-12-22T22:31:49.328Z,4.13
2022-12-22T22:34:16.021Z,4.20
2022-12-22T22:36:42.497Z,4.80
2022-12-22T22:39:10.700Z,4.60
2022-12-22T22:41:43.460Z,4.03
2022-12-22T22:44:10.691Z,3.43
2022-12-22T22:46:40.673Z,3.80
2022-12-22T22:49:08.505Z,4.87
2022-12-22T22:51:35.073Z,3.77
2022-12-22T22:54:01.996Z,3.70
2022-12-22T22:56:28.536Z,3.60
2022-12-22T22:58:55.113Z,4.10
2022-12-22T23:01:23.091Z,4.30
2022-12-22T23:03:52.232Z,4.20
2022-12-22T23:06:20.051Z,3.60
2022-12-22T23:08:56.344Z,3.87
2022-12-22T23:11:24.826Z,4.17
2022-12-22T23:13:53.792Z,4.03
2022-12-22T23:16:22.562Z,4.40
2022-12-22T23:18:52.833Z,4.43
2022-12-22T23:21:20.196Z,4.57
2022-12-22T23:23:48.268Z,3.60
2022-12-22T23:26:16.900Z,4.37
2022-12-22T23:28:43.498Z,3.97
2022-12-22T23:31:12.868Z,4.03
2022-12-22T23:33:39.670Z,3.80
2022-12-22T23:36:07.867Z,3.73
2022-12-22T23:38:35.173Z,3.73
2022-12-22T23:41:10.924Z,4.67
2022-12-22T23:43:37.899Z,3.40
2022-12-22T23:46:23.085Z,3.20
2022-12-22T23:48:52.708Z,4.33
2022-12-22T23:51:20.091Z,4.90
2022-12-22T23:53:46.690Z,4.23
2022-12-22T23:56:13.739Z,3.50
2022-12-22T23:58:40.743Z,3.60
